Terminal Aerodrome Forecast
Issued by NWS

Home | Current Version | Previous Version | Graphics & Text | Print | Product List | Glossary On
Versions: 1 2 3 4 5 6 7 8 9 10 11 12 13 14
000
FTUS43 KUNR 311700
TAFGCC
TAF
KGCC 311720Z 3118/0118 VRB05KT P6SM -SHRA BKN040 OVC070
      TEMPO 3120/3124 5SM TSRA BR OVC025CB
     FM010000 33012KT P6SM BKN030 OVC060
     FM010400 35008KT P6SM SCT120=

USA.gov is the U.S. government's official web portal to all federal, state and local government web resources and services.